Terminal Aerodrome Forecast
Issued by NWS

Current Version | Previous Version | Text Only | Print | Product List | Glossary Off
Versions: 1 2 3 4 5 6 7 8 9 10 11 12 13 14 15 16 17

000
FTUS41 KILN 240901 AAA
TAFLUK
TAF AMD
KLUK 240901Z 2409/2506 VRB03KT 3SM BR OVC150
     FM241200 14005KT P6SM SCT025 OVC050
     FM241400 14005KT P6SM VCSH OVC050
     FM241800 14005KT 4SM SHRA VCTS OVC025CB
     FM242300 26009KT P6SM VCSH BKN015=

USA.gov is the U.S. government's official web portal to all federal, state and local government web resources and services.